Time;durP1;ratioP1;P1;durP2;ratioP2;P2;SDS_P1;SDS_P2;PMS_P1;PMS_P2;Temp;Humidity;BMP_temperature;BMP_pressure;BME280_temperature;BME280_humidity;BME280_pressure;Samples;Min_cycle;Max_cycle;Signal;HPM_P1;HPM_P2
2023/05/12 00:02:08;;;;;;;31.73;15.60;;;11.20;99.90;;;;;;5085848;28;20092;-82
2023/05/12 00:04:35;;;;;;;28.52;16.60;;;11.30;99.90;;;;;;5103550;28;20039;-82
2023/05/12 00:07:01;;;;;;;28.27;16.55;;;11.20;99.90;;;;;;5087112;28;20134;-82
2023/05/12 00:09:26;;;;;;;31.63;15.68;;;11.20;99.90;;;;;;5090104;28;20122;-82
2023/05/12 00:11:52;;;;;;;31.40;14.50;;;11.20;99.90;;;;;;5091567;28;20104;-82
2023/05/12 00:14:19;;;;;;;26.42;15.52;;;11.20;99.90;;;;;;5089464;28;20067;-82
2023/05/12 00:16:50;;;;;;;30.98;13.85;;;11.30;99.90;;;;;;5108271;28;20043;-82
2023/05/12 00:19:16;;;;;;;33.80;13.98;;;11.20;99.90;;;;;;5123687;27;20044;-83
2023/05/12 00:21:42;;;;;;;29.25;14.82;;;11.30;99.90;;;;;;5090533;28;20104;-82
2023/05/12 00:24:08;;;;;;;26.55;12.80;;;11.30;99.90;;;;;;5090421;28;20043;-82
2023/05/12 00:26:33;;;;;;;25.63;13.65;;;11.30;99.90;;;;;;5089732;28;20518;-82
2023/05/12 00:28:59;;;;;;;28.70;13.73;;;11.30;99.90;;;;;;5090627;28;20046;-82
2023/05/12 00:31:25;;;;;;;29.13;13.73;;;11.30;99.90;;;;;;5089691;28;20086;-82
2023/05/12 00:33:51;;;;;;;34.13;13.10;;;11.40;99.90;;;;;;5073744;28;20374;-82
2023/05/12 00:36:16;;;;;;;26.88;12.73;;;11.30;99.90;;;;;;5089501;28;20043;-81
2023/05/12 00:38:42;;;;;;;28.67;13.25;;;11.70;99.90;;;;;;5107102;28;20043;-82
2023/05/12 00:41:08;;;;;;;27.05;14.05;;;11.40;99.90;;;;;;5106769;28;20050;-83
2023/05/12 00:43:33;;;;;;;26.77;13.02;;;11.40;99.90;;;;;;5089711;28;20092;-82
2023/05/12 00:46:01;;;;;;;27.83;15.25;;;11.40;99.90;;;;;;5107211;28;20523;-82
2023/05/12 00:48:27;;;;;;;33.97;14.73;;;11.40;99.90;;;;;;5122905;27;20047;-82
2023/05/12 00:50:54;;;;;;;29.98;16.20;;;11.40;99.90;;;;;;5090378;28;20047;-82
2023/05/12 00:53:19;;;;;;;34.45;15.35;;;11.40;99.90;;;;;;5106040;28;20043;-82
2023/05/12 00:55:45;;;;;;;35.75;16.60;;;11.40;99.90;;;;;;5089823;28;20046;-82
2023/05/12 00:58:11;;;;;;;36.70;16.23;;;11.90;99.90;;;;;;5089150;28;20048;-82
2023/05/12 01:00:36;;;;;;;27.70;14.98;;;11.40;99.90;;;;;;5089186;28;20054;-82
2023/05/12 01:03:03;;;;;;;29.40;15.35;;;11.50;99.90;;;;;;5089606;28;20051;-82
2023/05/12 01:05:45;;;;;;;33.20;16.65;;;11.50;99.90;;;;;;5105539;28;20484;-82
2023/05/12 01:08:11;;;;;;;29.80;15.15;;;11.50;99.90;;;;;;5090018;28;20043;-82
2023/05/12 01:10:43;;;;;;;29.17;15.82;;;11.50;99.90;;;;;;5071717;28;20130;-81
2023/05/12 01:13:08;;;;;;;27.92;14.48;;;11.50;99.90;;;;;;5089533;28;20039;-82
2023/05/12 01:15:35;;;;;;;30.50;14.77;;;12.20;99.90;;;;;;5072422;28;20092;-82
2023/05/12 01:18:03;;;;;;;26.58;13.52;;;11.50;99.90;;;;;;5122213;27;20046;-83
2023/05/12 01:20:30;;;;;;;27.38;14.32;;;11.50;99.90;;;;;;5072406;28;20047;-83
2023/05/12 01:22:58;;;;;;;32.67;14.52;;;11.60;99.90;;;;;;5088501;28;20046;-83
2023/05/12 01:25:25;;;;;;;29.65;13.27;;;11.80;99.90;;;;;;5106577;28;20043;-82
2023/05/12 01:27:52;;;;;;;23.42;13.15;;;11.60;99.90;;;;;;5088680;28;20164;-82
2023/05/12 01:30:19;;;;;;;33.03;14.75;;;11.60;99.90;;;;;;5106072;28;20092;-82
2023/05/12 01:32:44;;;;;;;36.90;14.80;;;11.60;99.90;;;;;;5105859;28;20117;-82
2023/05/12 01:35:10;;;;;;;31.67;14.75;;;11.60;99.90;;;;;;5088696;28;20075;-82
2023/05/12 01:37:36;;;;;;;34.42;13.82;;;11.70;99.90;;;;;;5106394;28;20500;-83
2023/05/12 01:40:02;;;;;;;34.10;16.23;;;11.70;99.90;;;;;;5104909;28;20051;-82
2023/05/12 01:42:28;;;;;;;38.67;15.02;;;11.70;99.90;;;;;;5089781;28;20113;-83
2023/05/12 01:44:53;;;;;;;35.60;16.02;;;11.70;99.90;;;;;;5088216;28;20472;-82
2023/05/12 01:47:20;;;;;;;36.33;17.63;;;11.90;99.90;;;;;;5089466;28;20048;-82
2023/05/12 01:49:46;;;;;;;36.38;16.38;;;11.70;99.90;;;;;;5072069;28;20036;-83
2023/05/12 01:52:12;;;;;;;33.72;17.17;;;11.70;99.90;;;;;;5088284;28;20073;-82
2023/05/12 01:54:38;;;;;;;34.00;17.27;;;11.70;99.90;;;;;;5089161;28;20075;-82
2023/05/12 01:57:04;;;;;;;36.63;16.50;;;11.70;99.90;;;;;;5087999;28;20086;-82
2023/05/12 01:59:30;;;;;;;41.70;18.13;;;11.70;99.90;;;;;;5089319;28;20560;-82
2023/05/12 02:01:55;;;;;;;41.92;18.75;;;11.70;99.90;;;;;;5121736;27;20080;-81
2023/05/12 02:04:21;;;;;;;38.78;16.98;;;11.70;99.90;;;;;;5105649;28;20130;-82
2023/05/12 02:06:47;;;;;;;34.70;16.23;;;11.70;99.90;;;;;;5104902;28;20116;-82
2023/05/12 02:09:13;;;;;;;35.75;18.55;;;11.70;99.90;;;;;;5088022;28;20044;-82
2023/05/12 02:11:38;;;;;;;39.70;19.58;;;11.70;99.90;;;;;;5106001;28;20062;-81
2023/05/12 02:14:05;;;;;;;44.50;18.10;;;11.70;99.90;;;;;;5088319;28;20055;-84
2023/05/12 02:16:31;;;;;;;48.38;17.40;;;11.70;99.90;;;;;;5107328;28;20475;-82
2023/05/12 02:18:56;;;;;;;38.63;19.67;;;11.80;99.90;;;;;;5105845;28;20127;-82
2023/05/12 02:21:22;;;;;;;39.28;18.58;;;11.70;99.90;;;;;;5091534;28;20074;-82
2023/05/12 02:23:48;;;;;;;37.65;18.17;;;11.90;99.90;;;;;;5089233;28;20039;-82
2023/05/12 02:26:13;;;;;;;45.63;17.67;;;11.70;99.90;;;;;;5105706;28;20039;-82
2023/05/12 02:28:39;;;;;;;42.78;17.92;;;11.70;99.90;;;;;;5089411;28;20464;-82
2023/05/12 02:31:05;;;;;;;36.22;17.00;;;11.60;99.90;;;;;;5071143;28;20073;-82
2023/05/12 02:33:31;;;;;;;39.10;16.17;;;11.70;99.90;;;;;;5089697;28;20122;-82
2023/05/12 02:35:57;;;;;;;43.80;17.23;;;11.70;99.90;;;;;;5105027;28;20104;-81
2023/05/12 02:38:22;;;;;;;40.08;16.42;;;11.70;99.90;;;;;;5105918;28;20113;-81
2023/05/12 02:40:48;;;;;;;37.13;16.23;;;11.90;99.90;;;;;;5105269;28;20225;-81
2023/05/12 02:43:14;;;;;;;38.42;16.85;;;11.60;99.90;;;;;;5105139;28;20043;-81
2023/05/12 02:45:40;;;;;;;34.38;16.38;;;11.60;99.90;;;;;;5106533;28;20085;-82
2023/05/12 02:48:06;;;;;;;37.45;15.68;;;11.70;99.90;;;;;;5088270;28;20079;-81
2023/05/12 02:50:31;;;;;;;45.33;16.73;;;11.60;99.90;;;;;;5073708;28;20047;-82
2023/05/12 02:52:57;;;;;;;46.58;17.45;;;11.60;99.90;;;;;;5103669;28;20047;-82
2023/05/12 02:55:23;;;;;;;35.97;16.42;;;11.60;99.90;;;;;;5104958;28;20044;-82
2023/05/12 02:57:49;;;;;;;38.35;16.52;;;11.60;99.90;;;;;;5087129;28;20108;-82
2023/05/12 03:00:14;;;;;;;48.50;16.42;;;11.60;99.90;;;;;;5121617;27;20044;-82
2023/05/12 03:02:40;;;;;;;34.10;16.05;;;11.60;99.90;;;;;;5087561;28;20044;-81
2023/05/12 03:05:08;;;;;;;38.35;16.15;;;11.50;99.90;;;;;;5120463;27;20043;-81
2023/05/12 03:07:34;;;;;;;33.60;15.82;;;11.50;99.90;;;;;;5122656;27;20403;-82
2023/05/12 03:10:00;;;;;;;39.70;15.93;;;11.50;99.90;;;;;;5103509;28;20096;-83
2023/05/12 03:12:28;;;;;;;40.38;16.52;;;11.50;99.90;;;;;;5087625;28;20043;-82
2023/05/12 03:14:54;;;;;;;36.58;15.70;;;11.50;99.90;;;;;;5070126;28;20066;-82
2023/05/12 03:17:20;;;;;;;47.45;18.75;;;11.40;99.90;;;;;;5087213;28;20390;-82
2023/05/12 03:19:46;;;;;;;39.10;16.60;;;11.40;99.90;;;;;;5121317;27;20051;-82
2023/05/12 03:22:12;;;;;;;37.28;17.45;;;11.40;99.90;;;;;;5086292;28;20993;-82
2023/05/12 03:24:38;;;;;;;52.00;18.45;;;11.40;99.90;;;;;;5087739;28;20052;-82
2023/05/12 03:27:04;;;;;;;48.97;17.52;;;11.40;99.90;;;;;;5103051;28;20039;-82
2023/05/12 03:29:30;;;;;;;39.75;17.65;;;11.40;99.90;;;;;;5104376;28;20046;-82
2023/05/12 03:31:56;;;;;;;45.05;16.17;;;11.40;99.90;;;;;;5120872;27;20478;-82
2023/05/12 03:34:22;;;;;;;41.05;16.17;;;11.40;99.90;;;;;;5105055;28;20057;-82
2023/05/12 03:36:47;;;;;;;45.65;19.27;;;11.90;99.90;;;;;;5105475;28;20119;-82
2023/05/12 03:39:13;;;;;;;40.08;16.65;;;11.40;99.90;;;;;;5102907;28;20108;-82
2023/05/12 03:41:39;;;;;;;44.63;18.60;;;11.40;99.90;;;;;;5103581;28;20151;-82
2023/05/12 03:44:07;;;;;;;53.30;17.75;;;11.50;99.90;;;;;;5085940;28;20040;-82
2023/05/12 03:46:33;;;;;;;45.95;17.17;;;11.40;99.90;;;;;;5087231;28;20058;-82
2023/05/12 03:48:59;;;;;;;40.28;17.13;;;11.30;99.90;;;;;;5120269;28;20042;-83
2023/05/12 03:51:24;;;;;;;42.60;18.25;;;12.10;99.90;;;;;;5086853;28;20039;-82
2023/05/12 03:53:50;;;;;;;36.60;17.45;;;11.40;99.90;;;;;;5103678;28;20134;-82
2023/05/12 03:56:16;;;;;;;39.55;17.13;;;11.40;99.90;;;;;;5086159;28;20113;-83
2023/05/12 03:58:42;;;;;;;42.30;17.50;;;11.40;99.90;;;;;;5087076;28;20092;-82
2023/05/12 04:01:08;;;;;;;51.40;18.75;;;11.40;99.90;;;;;;5120229;28;20047;-82
2023/05/12 04:03:34;;;;;;;43.58;17.45;;;11.80;99.90;;;;;;5103894;28;20401;-82
2023/05/12 04:06:03;;;;;;;37.38;18.92;;;11.40;99.90;;;;;;5086513;28;20046;-82
2023/05/12 04:08:29;;;;;;;44.58;18.73;;;11.50;99.90;;;;;;5103787;28;20043;-82
2023/05/12 04:10:57;;;;;;;47.47;17.65;;;11.50;99.90;;;;;;5103539;28;20047;-82
2023/05/12 04:13:23;;;;;;;50.15;17.25;;;11.50;99.90;;;;;;5086319;28;20043;-82
2023/05/12 04:15:48;;;;;;;39.10;17.98;;;11.50;99.90;;;;;;5120964;28;20145;-82
2023/05/12 04:18:15;;;;;;;35.83;16.05;;;11.60;99.90;;;;;;5119607;28;20044;-82
2023/05/12 04:20:41;;;;;;;39.95;18.35;;;11.50;99.90;;;;;;5086946;28;20081;-82
2023/05/12 04:23:07;;;;;;;40.80;16.73;;;11.60;99.90;;;;;;5085620;28;20081;-82
2023/05/12 04:25:32;;;;;;;47.33;17.45;;;11.60;99.90;;;;;;5086617;28;20053;-82
2023/05/12 04:27:58;;;;;;;47.75;16.17;;;11.70;99.90;;;;;;5086532;28;20439;-82
2023/05/12 04:30:24;;;;;;;38.60;17.25;;;11.70;99.90;;;;;;5102510;28;20043;-82
2023/05/12 04:32:49;;;;;;;43.05;18.98;;;11.70;99.90;;;;;;5086497;28;20480;-81
2023/05/12 04:35:15;;;;;;;50.22;18.02;;;11.70;99.90;;;;;;5085728;28;20080;-83
2023/05/12 04:37:41;;;;;;;40.88;18.27;;;11.70;99.90;;;;;;5086826;28;20496;-82
2023/05/12 04:40:08;;;;;;;49.10;17.42;;;12.00;99.90;;;;;;5085596;28;20396;-82
2023/05/12 04:42:34;;;;;;;53.03;18.63;;;11.80;99.90;;;;;;5086321;28;20048;-82
2023/05/12 04:45:00;;;;;;;46.03;19.83;;;11.80;99.90;;;;;;5086430;28;20079;-83
2023/05/12 04:47:25;;;;;;;47.92;19.10;;;11.80;99.90;;;;;;5119734;28;20079;-84
2023/05/12 04:49:51;;;;;;;46.50;17.38;;;11.90;99.90;;;;;;5086803;28;20047;-83
2023/05/12 04:52:17;;;;;;;46.65;18.85;;;11.90;99.90;;;;;;5102212;28;20140;-82
2023/05/12 04:54:42;;;;;;;42.35;17.52;;;11.90;99.90;;;;;;5089996;28;20464;-82
2023/05/12 04:57:08;;;;;;;37.95;16.95;;;12.00;99.90;;;;;;5089424;28;20066;-83
2023/05/12 04:59:34;;;;;;;36.00;17.33;;;12.00;99.90;;;;;;5107264;28;20361;-85
2023/05/12 05:02:00;;;;;;;40.10;19.17;;;12.10;99.90;;;;;;5089588;28;20073;-88
2023/05/12 05:04:26;;;;;;;46.78;19.48;;;12.10;99.90;;;;;;5106255;28;20047;-86
2023/05/12 05:06:54;;;;;;;42.85;19.15;;;12.20;99.90;;;;;;5107424;28;20170;-89
2023/05/12 05:09:20;;;;;;;35.47;17.80;;;12.20;99.90;;;;;;5123143;27;20474;-84
2023/05/12 05:11:46;;;;;;;40.38;18.75;;;12.20;99.90;;;;;;5090493;28;20130;-85
2023/05/12 05:14:12;;;;;;;35.05;18.00;;;12.30;99.90;;;;;;5088921;28;20039;-85
2023/05/12 05:16:38;;;;;;;38.58;17.92;;;12.30;99.90;;;;;;5106858;28;20059;-85
2023/05/12 05:19:03;;;;;;;42.42;18.65;;;12.30;99.90;;;;;;5123644;27;20039;-86
2023/05/12 05:21:29;;;;;;;46.45;22.42;;;12.30;99.90;;;;;;5089001;28;20178;-88
2023/05/12 05:23:55;;;;;;;39.60;19.27;;;12.40;99.90;;;;;;5073333;28;20075;-87
2023/05/12 05:26:21;;;;;;;38.80;17.95;;;12.40;99.90;;;;;;5089071;28;20692;-86
2023/05/12 05:28:46;;;;;;;44.83;18.90;;;12.40;99.90;;;;;;5073271;28;20549;-84
2023/05/12 05:31:16;;;;;;;40.33;19.00;;;12.40;99.90;;;;;;5122322;27;20073;-83
2023/05/12 05:33:43;;;;;;;36.03;16.98;;;12.40;99.90;;;;;;5089618;28;20492;-85
2023/05/12 05:36:09;;;;;;;43.05;20.00;;;12.40;99.90;;;;;;5088617;28;20481;-82
2023/05/12 05:38:35;;;;;;;37.72;19.15;;;12.50;99.90;;;;;;5123005;27;20450;-85
2023/05/12 05:41:00;;;;;;;34.25;18.42;;;12.50;99.90;;;;;;5106217;28;20047;-84
2023/05/12 05:43:26;;;;;;;35.65;18.63;;;12.50;99.90;;;;;;5088320;28;20040;-86
2023/05/12 05:45:52;;;;;;;46.83;19.67;;;12.50;99.90;;;;;;5090017;28;20045;-86
2023/05/12 05:48:18;;;;;;;38.83;17.52;;;12.60;99.90;;;;;;5087734;28;20043;-85
2023/05/12 05:50:43;;;;;;;45.58;20.10;;;12.70;99.90;;;;;;5089855;28;20062;-84
2023/05/12 05:53:09;;;;;;;39.55;19.17;;;12.60;99.90;;;;;;5105640;28;20035;-84
2023/05/12 05:55:35;;;;;;;42.55;18.52;;;12.70;99.90;;;;;;5105414;27;20485;-84
2023/05/12 05:58:00;;;;;;;40.40;18.75;;;12.70;99.90;;;;;;5088726;28;20330;-85
2023/05/12 06:00:26;;;;;;;42.90;20.38;;;12.80;99.90;;;;;;5104898;28;20039;-85
2023/05/12 06:02:52;;;;;;;43.20;20.33;;;12.80;99.90;;;;;;5105855;28;20442;-84
2023/05/12 06:05:18;;;;;;;44.55;19.73;;;12.80;99.90;;;;;;5086915;28;20035;-85
2023/05/12 06:07:43;;;;;;;48.22;19.33;;;12.90;99.90;;;;;;5123190;27;20050;-85
2023/05/12 06:10:09;;;;;;;33.00;19.10;;;12.90;99.90;;;;;;5105053;28;20164;-85
2023/05/12 06:12:35;;;;;;;38.38;19.08;;;12.90;99.90;;;;;;5105470;28;20497;-85
2023/05/12 06:15:00;;;;;;;47.58;20.73;;;13.00;99.90;;;;;;5105340;28;20106;-84
2023/05/12 06:17:26;;;;;;;43.17;21.35;;;13.00;99.90;;;;;;5104828;28;20040;-85
2023/05/12 06:19:52;;;;;;;46.88;22.48;;;13.00;99.90;;;;;;5088675;28;20488;-85
2023/05/12 06:22:17;;;;;;;41.75;21.08;;;13.10;99.90;;;;;;5104580;28;20048;-84
2023/05/12 06:24:43;;;;;;;44.03;21.92;;;13.10;99.90;;;;;;5106202;28;20047;-85
2023/05/12 06:27:09;;;;;;;38.42;23.50;;;13.20;99.90;;;;;;5087594;28;20102;-85
2023/05/12 06:29:34;;;;;;;43.45;22.50;;;13.30;99.90;;;;;;5087940;28;20044;-85
2023/05/12 06:32:01;;;;;;;39.95;23.77;;;13.40;99.90;;;;;;5087818;28;20055;-85
2023/05/12 06:34:28;;;;;;;42.53;24.55;;;13.50;99.90;;;;;;5087588;28;20043;-86
2023/05/12 06:36:54;;;;;;;38.53;21.92;;;13.60;99.90;;;;;;5088520;28;20565;-86
2023/05/12 06:39:19;;;;;;;37.58;22.70;;;13.70;99.90;;;;;;5104235;28;20043;-86
2023/05/12 06:41:45;;;;;;;45.00;25.17;;;13.70;99.90;;;;;;5071958;28;20499;-85
2023/05/12 06:44:11;;;;;;;38.88;22.65;;;13.80;99.90;;;;;;5086503;28;20264;-85
2023/05/12 06:46:40;;;;;;;38.60;23.98;;;13.90;99.90;;;;;;5088184;28;20043;-85
2023/05/12 06:49:07;;;;;;;49.97;25.98;;;14.00;99.90;;;;;;5087424;28;20480;-86
2023/05/12 06:51:33;;;;;;;48.25;27.23;;;14.10;99.90;;;;;;5086960;28;20043;-84
2023/05/12 06:53:59;;;;;;;46.00;25.75;;;14.20;99.90;;;;;;5104513;28;20066;-85
2023/05/12 06:56:25;;;;;;;43.40;25.67;;;14.30;99.90;;;;;;5086983;28;20047;-85
2023/05/12 06:58:51;;;;;;;42.65;27.58;;;14.40;99.90;;;;;;5088194;28;20083;-86
2023/05/12 07:01:17;;;;;;;42.83;27.25;;;14.50;99.90;;;;;;5086376;28;20437;-85
2023/05/12 07:03:42;;;;;;;44.33;26.42;;;14.50;99.90;;;;;;5121735;27;20096;-85
2023/05/12 07:06:08;;;;;;;45.33;26.73;;;14.60;99.90;;;;;;5087386;28;20039;-85
2023/05/12 07:08:34;;;;;;;47.67;26.75;;;14.70;99.90;;;;;;5087105;28;20461;-85
2023/05/12 07:11:00;;;;;;;50.38;28.95;;;14.70;99.90;;;;;;5121811;27;20060;-85
2023/05/12 07:13:26;;;;;;;49.42;29.98;;;14.80;99.90;;;;;;5086091;28;20040;-86
2023/05/12 07:15:52;;;;;;;45.85;30.42;;;14.90;99.90;;;;;;5088536;28;20432;-86
2023/05/12 07:18:18;;;;;;;48.95;30.10;;;15.00;99.90;;;;;;5102622;28;20036;-86
2023/05/12 07:20:45;;;;;;;49.08;32.05;;;15.10;99.90;;;;;;5104734;28;20080;-86
2023/05/12 07:23:11;;;;;;;47.47;31.10;;;15.20;99.90;;;;;;5087454;28;20455;-85
2023/05/12 07:25:38;;;;;;;52.47;31.58;;;15.30;99.90;;;;;;5086482;28;20043;-86
2023/05/12 07:28:04;;;;;;;48.65;31.45;;;15.40;99.90;;;;;;5121504;27;20052;-86
2023/05/12 07:30:30;;;;;;;41.88;29.10;;;15.40;99.90;;;;;;5086831;28;20446;-86
2023/05/12 07:32:56;;;;;;;51.38;31.08;;;15.50;99.90;;;;;;5087989;28;20051;-86
2023/05/12 07:35:22;;;;;;;50.25;30.75;;;15.60;99.90;;;;;;5086626;28;20046;-86
2023/05/12 07:37:48;;;;;;;47.20;31.70;;;15.70;99.90;;;;;;5104929;28;20484;-87
2023/05/12 07:40:14;;;;;;;45.38;30.42;;;15.70;99.90;;;;;;5087059;28;20044;-85
2023/05/12 07:42:40;;;;;;;45.67;31.73;;;15.80;99.90;;;;;;5103614;28;20051;-86
2023/05/12 07:45:06;;;;;;;43.17;31.27;;;15.90;99.90;;;;;;5087221;28;20055;-85
2023/05/12 07:47:31;;;;;;;42.22;30.27;;;15.90;99.90;;;;;;5086787;28;20361;-86
2023/05/12 07:49:57;;;;;;;47.50;30.30;;;16.00;99.90;;;;;;5088140;28;20043;-86
2023/05/12 07:52:23;;;;;;;41.05;31.02;;;16.10;99.90;;;;;;5086643;28;20144;-90
2023/05/12 07:54:49;;;;;;;44.28;31.30;;;16.20;99.90;;;;;;5105058;28;20646;-84
2023/05/12 07:57:15;;;;;;;38.97;28.92;;;16.20;99.90;;;;;;5086297;28;20066;-83
2023/05/12 07:59:41;;;;;;;45.42;29.55;;;16.30;99.90;;;;;;5120966;27;20189;-84
2023/05/12 08:02:07;;;;;;;42.60;29.65;;;16.50;99.90;;;;;;5121401;28;20051;-85
2023/05/12 08:04:33;;;;;;;43.67;29.52;;;16.50;99.90;;;;;;5103417;28;20451;-86
2023/05/12 08:06:58;;;;;;;42.80;29.10;;;16.60;99.90;;;;;;5087378;28;20484;-86
2023/05/12 08:09:24;;;;;;;36.15;28.85;;;16.70;99.90;;;;;;5085952;28;20051;-86
2023/05/12 08:11:50;;;;;;;45.20;30.75;;;16.70;99.90;;;;;;5104992;28;20131;-85
2023/05/12 08:14:16;;;;;;;43.97;30.48;;;16.70;99.90;;;;;;5086595;28;20044;-83
2023/05/12 08:16:44;;;;;;;38.10;29.67;;;16.70;99.90;;;;;;5103564;28;20492;-83
2023/05/12 08:19:11;;;;;;;38.65;27.65;;;16.80;99.90;;;;;;5087135;28;20108;-83
2023/05/12 08:21:37;;;;;;;42.38;28.67;;;16.90;99.90;;;;;;5103008;28;20048;-84
2023/05/12 08:24:02;;;;;;;37.63;28.95;;;17.00;99.90;;;;;;5104330;28;20050;-83
2023/05/12 08:26:28;;;;;;;38.55;28.85;;;17.00;99.90;;;;;;5086145;28;20043;-83
2023/05/12 08:28:54;;;;;;;37.53;28.55;;;17.20;99.90;;;;;;5089740;28;20040;-83
2023/05/12 08:31:19;;;;;;;46.63;32.88;;;17.20;99.90;;;;;;5089875;28;20090;-83
2023/05/12 08:33:45;;;;;;;38.28;27.27;;;17.40;99.90;;;;;;5090479;28;20534;-85
2023/05/12 08:36:11;;;;;;;35.67;26.50;;;17.50;99.90;;;;;;5124395;27;20047;-89
2023/05/12 08:38:37;;;;;;;32.63;26.83;;;17.60;99.90;;;;;;5089230;28;20066;-85
2023/05/12 08:41:14;;;;;;;33.70;25.67;;;17.80;99.90;;;;;;5090893;28;20043;-86
2023/05/12 08:43:48;;;;;;;33.95;25.02;;;17.80;99.90;;;;;;5123495;27;20044;-85
2023/05/12 08:46:15;;;;;;;30.73;24.35;;;17.90;99.90;;;;;;5108722;27;20048;-84
2023/05/12 08:48:42;;;;;;;30.23;23.48;;;17.90;99.90;;;;;;5123507;27;20040;-84
2023/05/12 08:51:10;;;;;;;27.33;23.73;;;18.00;99.90;;;;;;5073109;28;20051;-87
2023/05/12 08:53:38;;;;;;;33.67;24.35;;;18.00;99.90;;;;;;5124537;27;20040;-87
2023/05/12 08:56:06;;;;;;;31.63;23.85;;;18.20;99.90;;;;;;5123040;27;20577;-85
2023/05/12 08:58:32;;;;;;;28.02;22.25;;;18.30;99.90;;;;;;5090349;28;20488;-82
2023/05/12 09:01:06;;;;;;;30.40;23.00;;;18.40;99.90;;;;;;5123768;27;20082;-85
2023/05/12 09:03:35;;;;;;;27.45;21.92;;;18.60;99.90;;;;;;5090883;28;20050;-86
2023/05/12 09:06:02;;;;;;;28.98;21.90;;;19.00;99.90;;;;;;5123660;27;20036;-86
2023/05/12 09:08:31;;;;;;;29.27;22.10;;;19.20;99.90;;;;;;5089886;28;20071;-85
2023/05/12 09:10:58;;;;;;;27.05;20.75;;;19.30;99.90;;;;;;5124279;27;20480;-85
2023/05/12 09:13:42;;;;;;;28.83;23.23;;;19.30;99.90;;;;;;5088677;28;20621;-85
2023/05/12 09:16:13;;;;;;;26.70;21.98;;;19.40;99.90;;;;;;5124869;27;20124;-86
2023/05/12 09:18:53;;;;;;;27.83;22.30;;;19.40;99.90;;;;;;5088833;28;20050;-85
2023/05/12 09:21:19;;;;;;;23.88;20.50;;;19.40;99.90;;;;;;5106594;28;20378;-85
2023/05/12 09:24:12;;;;;;;29.30;21.73;;;19.40;99.90;;;;;;5073163;28;20046;-85
2023/05/12 09:26:51;;;;;;;26.77;19.80;;;19.50;99.90;;;;;;5084939;28;20062;-85
2023/05/12 09:29:18;;;;;;;24.70;20.60;;;19.50;99.90;;;;;;5124128;27;20048;-85
2023/05/12 09:31:51;;;;;;;27.55;20.45;;;19.60;99.90;;;;;;5071512;28;20052;-85
2023/05/12 09:34:18;;;;;;;22.30;18.75;;;19.80;99.90;;;;;;5123003;27;20083;-85
2023/05/12 09:36:44;;;;;;;21.48;17.23;;;19.90;99.90;;;;;;5090022;28;20063;-85
2023/05/12 09:39:12;;;;;;;24.02;17.70;;;20.00;99.90;;;;;;5071448;28;20050;-86
2023/05/12 09:41:41;;;;;;;22.08;17.17;;;20.10;99.90;;;;;;5106352;28;20480;-86
2023/05/12 09:44:08;;;;;;;21.88;17.35;;;20.20;99.90;;;;;;5122746;27;20039;-85
2023/05/12 09:46:35;;;;;;;21.00;17.98;;;20.30;99.90;;;;;;5089564;28;20075;-86
2023/05/12 09:49:04;;;;;;;23.85;18.45;;;20.40;99.90;;;;;;5088454;28;20043;-86
2023/05/12 09:51:30;;;;;;;21.65;18.42;;;20.40;99.90;;;;;;5088572;28;20047;-85
2023/05/12 09:53:59;;;;;;;25.17;17.17;;;20.60;99.90;;;;;;5107002;28;20069;-86
2023/05/12 09:56:31;;;;;;;19.63;16.35;;;20.70;99.90;;;;;;5122421;27;20397;-85
2023/05/12 09:58:57;;;;;;;20.25;16.42;;;20.70;99.90;;;;;;5073197;28;20047;-84
2023/05/12 10:01:24;;;;;;;20.17;16.38;;;20.80;99.90;;;;;;5087405;28;20050;-84
2023/05/12 10:03:53;;;;;;;19.55;16.77;;;20.90;99.90;;;;;;5105592;28;20036;-88
2023/05/12 10:06:29;;;;;;;24.63;15.77;;;21.00;99.90;;;;;;5088549;28;20138;-89
2023/05/12 10:09:18;;;;;;;17.02;15.23;;;21.00;99.90;;;;;;5122667;27;20054;-84
2023/05/12 10:11:45;;;;;;;19.83;17.73;;;21.00;99.90;;;;;;5092197;28;20059;-87
2023/05/12 10:14:12;;;;;;;19.13;16.17;;;21.00;99.90;;;;;;5123935;27;20047;-85
2023/05/12 10:16:40;;;;;;;18.67;15.10;;;21.00;99.90;;;;;;5107375;28;20383;-85
2023/05/12 10:19:07;;;;;;;24.15;17.25;;;21.00;99.90;;;;;;5124054;27;20118;-86
2023/05/12 10:21:35;;;;;;;21.95;15.13;;;21.10;99.90;;;;;;5089286;28;20063;-86
2023/05/12 10:24:03;;;;;;;16.73;14.93;;;21.20;99.90;;;;;;5090399;28;20519;-86
2023/05/12 10:26:31;;;;;;;22.10;16.70;;;21.20;99.90;;;;;;5123486;27;20077;-86
2023/05/12 10:28:57;;;;;;;19.08;14.10;;;21.40;99.90;;;;;;5107770;27;20121;-85
2023/05/12 10:31:24;;;;;;;21.05;14.60;;;21.50;99.90;;;;;;5088810;28;20050;-86
2023/05/12 10:33:57;;;;;;;18.55;13.57;;;21.60;99.90;;;;;;5107141;28;20100;-85
2023/05/12 10:36:23;;;;;;;19.05;13.02;;;21.70;99.90;;;;;;5123283;27;20139;-85
2023/05/12 10:38:50;;;;;;;16.55;13.45;;;21.80;99.90;;;;;;5123459;27;20040;-86
2023/05/12 10:41:32;;;;;;;19.92;13.98;;;21.90;99.90;;;;;;5110489;28;20120;-85
2023/05/12 10:43:58;;;;;;;16.60;11.93;;;21.80;99.90;;;;;;5105484;28;20146;-86
2023/05/12 10:46:25;;;;;;;15.98;12.15;;;22.10;99.90;;;;;;5106866;28;20062;-86
2023/05/12 10:49:05;;;;;;;26.48;12.82;;;22.20;99.90;;;;;;5089302;28;20094;-86
2023/05/12 10:51:32;;;;;;;14.73;12.35;;;22.30;99.90;;;;;;5106918;28;20100;-86
2023/05/12 10:54:03;;;;;;;12.18;10.77;;;22.30;99.90;;;;;;5126834;27;20046;-85
2023/05/12 10:56:42;;;;;;;14.55;11.77;;;22.40;99.90;;;;;;5088296;28;20623;-85
2023/05/12 10:59:20;;;;;;;13.93;9.65;;;22.50;99.90;;;;;;5124424;27;20488;-86
2023/05/12 11:01:59;;;;;;;13.52;9.10;;;22.60;99.90;;;;;;5089554;28;20111;-87
2023/05/12 11:04:45;;;;;;;15.68;10.23;;;22.70;99.90;;;;;;5088970;28;20047;-84
2023/05/12 11:07:12;;;;;;;10.85;8.88;;;22.70;99.90;;;;;;5124817;27;20065;-86
2023/05/12 11:09:40;;;;;;;11.63;9.43;;;22.80;99.90;;;;;;5088792;28;20127;-86
2023/05/12 11:12:07;;;;;;;11.77;8.70;;;22.90;99.90;;;;;;5105130;28;20464;-86
2023/05/12 11:14:40;;;;;;;10.25;8.77;;;23.00;99.90;;;;;;5088896;28;20465;-86
2023/05/12 11:17:06;;;;;;;10.88;8.07;;;23.10;99.90;;;;;;5109821;28;20466;-86
2023/05/12 11:19:32;;;;;;;11.35;7.68;;;23.30;99.90;;;;;;5090772;28;20047;-86
2023/05/12 11:22:10;;;;;;;10.68;7.95;;;23.40;99.90;;;;;;5087001;28;20078;-87
2023/05/12 11:24:37;;;;;;;11.32;7.38;;;23.40;99.90;;;;;;5094427;28;20052;-87
2023/05/12 11:27:05;;;;;;;9.90;7.57;;;23.40;99.90;;;;;;5093989;28;20055;-89
2023/05/12 11:29:31;;;;;;;12.23;6.63;;;23.30;99.90;;;;;;5109257;28;20101;-85
2023/05/12 11:32:01;;;;;;;7.80;6.45;;;23.30;99.90;;;;;;5091714;28;20177;-86
2023/05/12 11:34:27;;;;;;;9.40;7.25;;;23.60;99.90;;;;;;5091177;28;20135;-87
2023/05/12 11:36:55;;;;;;;7.72;6.75;;;23.10;99.90;;;;;;5073076;28;20071;-87
2023/05/12 11:39:26;;;;;;;12.18;7.78;;;23.10;99.90;;;;;;5109108;28;20043;-87
2023/05/12 11:41:52;;;;;;;10.25;6.85;;;23.10;99.90;;;;;;5109819;28;20086;-87
2023/05/12 11:44:21;;;;;;;15.48;5.93;;;23.10;99.90;;;;;;5105989;28;20031;-87
2023/05/12 11:47:02;;;;;;;8.65;6.70;;;23.10;99.90;;;;;;5089377;28;20048;-87
2023/05/12 11:49:30;;;;;;;8.60;5.70;;;23.20;99.90;;;;;;5104665;28;20488;-87
2023/05/12 11:51:58;;;;;;;9.00;5.78;;;23.30;99.90;;;;;;5103104;28;20054;-87
2023/05/12 11:54:24;;;;;;;7.13;5.82;;;23.40;99.90;;;;;;5087738;28;20426;-87
2023/05/12 11:56:54;;;;;;;8.50;4.97;;;23.60;99.90;;;;;;5069488;28;20040;-87
2023/05/12 11:59:31;;;;;;;9.23;6.22;;;23.80;99.90;;;;;;5087251;28;20044;-85
2023/05/12 12:01:59;;;;;;;5.18;4.53;;;24.00;99.90;;;;;;5086692;28;20123;-86
2023/05/12 12:04:31;;;;;;;8.30;4.97;;;24.20;99.90;;;;;;5106347;28;20055;-86
2023/05/12 12:06:57;;;;;;;5.57;4.95;;;24.20;99.90;;;;;;5108889;28;20083;-87
2023/05/12 12:09:30;;;;;;;7.32;4.65;;;24.30;99.90;;;;;;5107043;28;20063;-88
2023/05/12 12:11:56;;;;;;;8.88;4.93;;;24.40;99.90;;;;;;5108692;28;20491;-86
2023/05/12 12:14:21;;;;;;;7.60;4.97;;;24.40;99.90;;;;;;5108238;28;20044;-87
2023/05/12 12:16:47;;;;;;;8.50;4.53;;;24.50;99.90;;;;;;5074756;28;20090;-87
2023/05/12 12:19:13;;;;;;;5.10;4.53;;;24.70;99.90;;;;;;5091391;28;20082;-86
2023/05/12 12:21:38;;;;;;;4.65;4.07;;;24.70;99.90;;;;;;5090115;28;20048;-87
2023/05/12 12:24:05;;;;;;;4.93;4.00;;;24.70;99.40;;;;;;5108611;28;20040;-86
2023/05/12 12:26:30;;;;;;;3.90;3.50;;;24.80;99.30;;;;;;5073082;28;20059;-86
2023/05/12 12:28:56;;;;;;;7.50;4.10;;;24.80;98.50;;;;;;5108180;28;20521;-86